sensor_id;sensor_type;location;lat;lon;timestamp;P1;durP1;ratioP1;P2;durP2;ratioP2
25111;SDS011;13092;51.996;4.458;2023-07-08T00:00:44;4.82;;;2.95;;
25111;SDS011;13092;51.996;4.458;2023-07-08T00:03:21;5.97;;;3.40;;
25111;SDS011;13092;51.996;4.458;2023-07-08T00:05:53;7.68;;;3.70;;
25111;SDS011;13092;51.996;4.458;2023-07-08T00:08:23;8.15;;;3.13;;
25111;SDS011;13092;51.996;4.458;2023-07-08T00:10:51;5.90;;;3.35;;
25111;SDS011;13092;51.996;4.458;2023-07-08T00:13:21;3.65;;;2.80;;
25111;SDS011;13092;51.996;4.458;2023-07-08T00:15:49;7.43;;;2.95;;
25111;SDS011;13092;51.996;4.458;2023-07-08T00:18:18;8.35;;;3.13;;
25111;SDS011;13092;51.996;4.458;2023-07-08T00:20:47;5.50;;;3.40;;
25111;SDS011;13092;51.996;4.458;2023-07-08T00:23:18;6.63;;;3.35;;
25111;SDS011;13092;51.996;4.458;2023-07-08T00:25:48;4.65;;;3.33;;
25111;SDS011;13092;51.996;4.458;2023-07-08T00:28:19;5.93;;;3.10;;
25111;SDS011;13092;51.996;4.458;2023-07-08T00:30:50;6.53;;;3.35;;
25111;SDS011;13092;51.996;4.458;2023-07-08T00:33:19;4.63;;;3.40;;
25111;SDS011;13092;51.996;4.458;2023-07-08T00:35:48;12.65;;;3.78;;
25111;SDS011;13092;51.996;4.458;2023-07-08T00:38:17;8.88;;;4.03;;
25111;SDS011;13092;51.996;4.458;2023-07-08T00:40:48;4.65;;;3.15;;
25111;SDS011;13092;51.996;4.458;2023-07-08T00:43:19;6.18;;;3.70;;
25111;SDS011;13092;51.996;4.458;2023-07-08T00:45:53;5.93;;;3.63;;
25111;SDS011;13092;51.996;4.458;2023-07-08T00:48:31;5.63;;;3.50;;
25111;SDS011;13092;51.996;4.458;2023-07-08T00:51:01;6.43;;;3.70;;
25111;SDS011;13092;51.996;4.458;2023-07-08T00:53:31;6.03;;;3.85;;
25111;SDS011;13092;51.996;4.458;2023-07-08T00:56:03;8.45;;;3.72;;
25111;SDS011;13092;51.996;4.458;2023-07-08T00:58:38;6.60;;;3.92;;
25111;SDS011;13092;51.996;4.458;2023-07-08T01:01:10;6.53;;;3.70;;
25111;SDS011;13092;51.996;4.458;2023-07-08T01:03:41;6.78;;;3.67;;
25111;SDS011;13092;51.996;4.458;2023-07-08T01:06:18;6.22;;;3.95;;
25111;SDS011;13092;51.996;4.458;2023-07-08T01:08:49;5.57;;;3.33;;
25111;SDS011;13092;51.996;4.458;2023-07-08T01:11:20;6.75;;;3.70;;
25111;SDS011;13092;51.996;4.458;2023-07-08T01:13:49;7.25;;;3.95;;
25111;SDS011;13092;51.996;4.458;2023-07-08T01:16:21;7.43;;;3.47;;
25111;SDS011;13092;51.996;4.458;2023-07-08T01:18:50;9.70;;;3.92;;
25111;SDS011;13092;51.996;4.458;2023-07-08T01:21:30;7.13;;;3.58;;
25111;SDS011;13092;51.996;4.458;2023-07-08T01:24:02;5.45;;;3.38;;
25111;SDS011;13092;51.996;4.458;2023-07-08T01:26:33;5.75;;;3.28;;
25111;SDS011;13092;51.996;4.458;2023-07-08T01:29:04;8.52;;;3.67;;
25111;SDS011;13092;51.996;4.458;2023-07-08T01:31:33;5.85;;;3.42;;
25111;SDS011;13092;51.996;4.458;2023-07-08T01:34:02;8.18;;;4.28;;
25111;SDS011;13092;51.996;4.458;2023-07-08T01:36:32;7.20;;;3.80;;
25111;SDS011;13092;51.996;4.458;2023-07-08T01:39:06;6.53;;;3.90;;
25111;SDS011;13092;51.996;4.458;2023-07-08T01:41:37;8.05;;;3.65;;
25111;SDS011;13092;51.996;4.458;2023-07-08T01:44:18;6.13;;;3.60;;
25111;SDS011;13092;51.996;4.458;2023-07-08T01:46:49;8.60;;;3.95;;
25111;SDS011;13092;51.996;4.458;2023-07-08T01:49:19;5.82;;;3.53;;
25111;SDS011;13092;51.996;4.458;2023-07-08T01:51:47;5.97;;;3.88;;
25111;SDS011;13092;51.996;4.458;2023-07-08T01:54:18;5.65;;;3.65;;
25111;SDS011;13092;51.996;4.458;2023-07-08T01:56:46;6.85;;;3.83;;
25111;SDS011;13092;51.996;4.458;2023-07-08T01:59:18;6.80;;;3.67;;
25111;SDS011;13092;51.996;4.458;2023-07-08T02:01:46;6.95;;;4.32;;
25111;SDS011;13092;51.996;4.458;2023-07-08T02:04:16;7.05;;;4.00;;
25111;SDS011;13092;51.996;4.458;2023-07-08T02:06:50;6.78;;;3.50;;
25111;SDS011;13092;51.996;4.458;2023-07-08T02:09:22;6.88;;;4.00;;
25111;SDS011;13092;51.996;4.458;2023-07-08T02:11:51;6.95;;;3.70;;
25111;SDS011;13092;51.996;4.458;2023-07-08T02:14:19;4.97;;;3.67;;
25111;SDS011;13092;51.996;4.458;2023-07-08T02:16:48;5.07;;;3.80;;
25111;SDS011;13092;51.996;4.458;2023-07-08T02:19:17;6.82;;;4.03;;
25111;SDS011;13092;51.996;4.458;2023-07-08T02:21:45;6.72;;;3.60;;
25111;SDS011;13092;51.996;4.458;2023-07-08T02:24:14;8.15;;;4.15;;
25111;SDS011;13092;51.996;4.458;2023-07-08T02:26:45;6.80;;;4.00;;
25111;SDS011;13092;51.996;4.458;2023-07-08T02:29:17;6.10;;;3.72;;
25111;SDS011;13092;51.996;4.458;2023-07-08T02:31:45;7.28;;;4.07;;
25111;SDS011;13092;51.996;4.458;2023-07-08T02:34:14;5.32;;;3.70;;
25111;SDS011;13092;51.996;4.458;2023-07-08T02:36:42;7.10;;;3.90;;
25111;SDS011;13092;51.996;4.458;2023-07-08T02:39:11;6.60;;;3.92;;
25111;SDS011;13092;51.996;4.458;2023-07-08T02:41:39;6.57;;;3.80;;
25111;SDS011;13092;51.996;4.458;2023-07-08T02:44:10;6.50;;;4.00;;
25111;SDS011;13092;51.996;4.458;2023-07-08T02:46:38;7.50;;;4.15;;
25111;SDS011;13092;51.996;4.458;2023-07-08T02:49:06;6.18;;;3.80;;
25111;SDS011;13092;51.996;4.458;2023-07-08T02:51:35;8.55;;;4.05;;
25111;SDS011;13092;51.996;4.458;2023-07-08T02:54:04;6.18;;;4.07;;
25111;SDS011;13092;51.996;4.458;2023-07-08T02:56:33;7.95;;;4.20;;
25111;SDS011;13092;51.996;4.458;2023-07-08T02:59:01;7.07;;;4.43;;
25111;SDS011;13092;51.996;4.458;2023-07-08T03:01:32;5.03;;;3.70;;
25111;SDS011;13092;51.996;4.458;2023-07-08T03:04:08;6.72;;;3.88;;
25111;SDS011;13092;51.996;4.458;2023-07-08T03:06:39;6.53;;;4.00;;
25111;SDS011;13092;51.996;4.458;2023-07-08T03:09:08;6.13;;;3.95;;
25111;SDS011;13092;51.996;4.458;2023-07-08T03:11:36;7.20;;;4.22;;
25111;SDS011;13092;51.996;4.458;2023-07-08T03:14:05;6.38;;;4.20;;
25111;SDS011;13092;51.996;4.458;2023-07-08T03:16:35;7.30;;;4.30;;
25111;SDS011;13092;51.996;4.458;2023-07-08T03:19:04;5.95;;;4.43;;
25111;SDS011;13092;51.996;4.458;2023-07-08T03:21:33;7.53;;;4.43;;
25111;SDS011;13092;51.996;4.458;2023-07-08T03:24:02;7.47;;;4.20;;
25111;SDS011;13092;51.996;4.458;2023-07-08T03:26:30;6.75;;;4.47;;
25111;SDS011;13092;51.996;4.458;2023-07-08T03:29:00;7.53;;;4.53;;
25111;SDS011;13092;51.996;4.458;2023-07-08T03:31:29;6.72;;;4.68;;
25111;SDS011;13092;51.996;4.458;2023-07-08T03:33:59;9.18;;;4.50;;
25111;SDS011;13092;51.996;4.458;2023-07-08T03:36:33;6.93;;;4.50;;
25111;SDS011;13092;51.996;4.458;2023-07-08T03:39:15;11.18;;;4.63;;
25111;SDS011;13092;51.996;4.458;2023-07-08T03:41:43;9.35;;;4.82;;
25111;SDS011;13092;51.996;4.458;2023-07-08T03:44:12;7.35;;;4.57;;
25111;SDS011;13092;51.996;4.458;2023-07-08T03:46:45;8.23;;;4.47;;
25111;SDS011;13092;51.996;4.458;2023-07-08T03:49:17;7.65;;;5.07;;
25111;SDS011;13092;51.996;4.458;2023-07-08T03:51:49;10.15;;;5.05;;
25111;SDS011;13092;51.996;4.458;2023-07-08T03:54:18;8.30;;;5.20;;
25111;SDS011;13092;51.996;4.458;2023-07-08T03:56:47;9.93;;;5.95;;
25111;SDS011;13092;51.996;4.458;2023-07-08T03:59:15;7.28;;;5.25;;
25111;SDS011;13092;51.996;4.458;2023-07-08T04:01:44;8.52;;;5.43;;
25111;SDS011;13092;51.996;4.458;2023-07-08T04:04:14;8.57;;;6.00;;
25111;SDS011;13092;51.996;4.458;2023-07-08T04:06:44;8.52;;;5.82;;
25111;SDS011;13092;51.996;4.458;2023-07-08T04:09:15;7.20;;;5.63;;
25111;SDS011;13092;51.996;4.458;2023-07-08T04:11:43;9.13;;;5.75;;
25111;SDS011;13092;51.996;4.458;2023-07-08T04:14:12;6.47;;;5.70;;
25111;SDS011;13092;51.996;4.458;2023-07-08T04:16:43;10.05;;;6.05;;
25111;SDS011;13092;51.996;4.458;2023-07-08T04:19:15;9.90;;;6.25;;
25111;SDS011;13092;51.996;4.458;2023-07-08T04:21:45;9.13;;;5.50;;
25111;SDS011;13092;51.996;4.458;2023-07-08T04:24:14;10.32;;;6.13;;
25111;SDS011;13092;51.996;4.458;2023-07-08T04:26:44;8.75;;;6.93;;
25111;SDS011;13092;51.996;4.458;2023-07-08T04:29:15;9.68;;;6.40;;
25111;SDS011;13092;51.996;4.458;2023-07-08T04:31:45;8.75;;;6.43;;
25111;SDS011;13092;51.996;4.458;2023-07-08T04:34:15;8.95;;;5.88;;
25111;SDS011;13092;51.996;4.458;2023-07-08T04:36:48;7.55;;;5.80;;
25111;SDS011;13092;51.996;4.458;2023-07-08T04:39:17;8.77;;;5.95;;
25111;SDS011;13092;51.996;4.458;2023-07-08T04:41:45;9.23;;;6.10;;
25111;SDS011;13092;51.996;4.458;2023-07-08T04:44:14;10.32;;;6.03;;
25111;SDS011;13092;51.996;4.458;2023-07-08T04:46:45;8.98;;;5.20;;
25111;SDS011;13092;51.996;4.458;2023-07-08T04:49:17;7.97;;;5.07;;
25111;SDS011;13092;51.996;4.458;2023-07-08T04:51:46;6.90;;;4.75;;
25111;SDS011;13092;51.996;4.458;2023-07-08T04:54:16;10.45;;;5.03;;
25111;SDS011;13092;51.996;4.458;2023-07-08T04:56:46;7.72;;;5.07;;
25111;SDS011;13092;51.996;4.458;2023-07-08T04:59:17;7.32;;;4.65;;
25111;SDS011;13092;51.996;4.458;2023-07-08T05:01:46;9.32;;;4.80;;
25111;SDS011;13092;51.996;4.458;2023-07-08T05:04:16;7.00;;;4.35;;
25111;SDS011;13092;51.996;4.458;2023-07-08T05:06:45;8.23;;;5.05;;
25111;SDS011;13092;51.996;4.458;2023-07-08T05:09:14;7.75;;;4.97;;
25111;SDS011;13092;51.996;4.458;2023-07-08T05:11:45;7.97;;;4.60;;
25111;SDS011;13092;51.996;4.458;2023-07-08T05:14:14;6.82;;;4.60;;
25111;SDS011;13092;51.996;4.458;2023-07-08T05:16:45;8.95;;;4.80;;
25111;SDS011;13092;51.996;4.458;2023-07-08T05:19:14;10.07;;;4.95;;
25111;SDS011;13092;51.996;4.458;2023-07-08T05:21:48;7.15;;;4.55;;
25111;SDS011;13092;51.996;4.458;2023-07-08T05:24:17;8.13;;;4.60;;
25111;SDS011;13092;51.996;4.458;2023-07-08T05:26:49;9.57;;;4.50;;
25111;SDS011;13092;51.996;4.458;2023-07-08T05:29:17;7.97;;;4.30;;
25111;SDS011;13092;51.996;4.458;2023-07-08T05:31:46;7.22;;;4.68;;
25111;SDS011;13092;51.996;4.458;2023-07-08T05:34:17;7.63;;;4.32;;
25111;SDS011;13092;51.996;4.458;2023-07-08T05:36:46;6.82;;;4.43;;
25111;SDS011;13092;51.996;4.458;2023-07-08T05:39:14;7.40;;;4.00;;
25111;SDS011;13092;51.996;4.458;2023-07-08T05:41:43;6.07;;;4.05;;
25111;SDS011;13092;51.996;4.458;2023-07-08T05:44:13;7.97;;;4.45;;
25111;SDS011;13092;51.996;4.458;2023-07-08T05:46:45;7.65;;;3.90;;
25111;SDS011;13092;51.996;4.458;2023-07-08T05:49:13;6.20;;;3.90;;
25111;SDS011;13092;51.996;4.458;2023-07-08T05:51:42;6.20;;;3.90;;
25111;SDS011;13092;51.996;4.458;2023-07-08T05:54:11;7.35;;;4.05;;
25111;SDS011;13092;51.996;4.458;2023-07-08T05:56:40;6.93;;;4.18;;
25111;SDS011;13092;51.996;4.458;2023-07-08T05:59:08;6.70;;;3.90;;
25111;SDS011;13092;51.996;4.458;2023-07-08T06:01:39;6.20;;;3.70;;
25111;SDS011;13092;51.996;4.458;2023-07-08T06:04:07;7.03;;;3.38;;
25111;SDS011;13092;51.996;4.458;2023-07-08T06:06:36;5.32;;;3.60;;
25111;SDS011;13092;51.996;4.458;2023-07-08T06:09:05;5.53;;;3.80;;
25111;SDS011;13092;51.996;4.458;2023-07-08T06:11:33;7.65;;;3.78;;
25111;SDS011;13092;51.996;4.458;2023-07-08T06:14:02;6.28;;;3.72;;
25111;SDS011;13092;51.996;4.458;2023-07-08T06:16:31;7.82;;;3.60;;
25111;SDS011;13092;51.996;4.458;2023-07-08T06:19:08;8.45;;;3.65;;
25111;SDS011;13092;51.996;4.458;2023-07-08T06:21:37;6.45;;;3.80;;
25111;SDS011;13092;51.996;4.458;2023-07-08T06:24:06;7.57;;;3.53;;
25111;SDS011;13092;51.996;4.458;2023-07-08T06:26:34;7.47;;;3.90;;
25111;SDS011;13092;51.996;4.458;2023-07-08T06:29:03;7.28;;;3.45;;
25111;SDS011;13092;51.996;4.458;2023-07-08T06:31:32;4.75;;;3.30;;
25111;SDS011;13092;51.996;4.458;2023-07-08T06:34:01;7.45;;;3.70;;
25111;SDS011;13092;51.996;4.458;2023-07-08T06:36:32;7.65;;;3.63;;
25111;SDS011;13092;51.996;4.458;2023-07-08T06:39:00;6.15;;;3.55;;
25111;SDS011;13092;51.996;4.458;2023-07-08T06:41:29;5.18;;;3.45;;
25111;SDS011;13092;51.996;4.458;2023-07-08T06:43:57;6.63;;;3.85;;
25111;SDS011;13092;51.996;4.458;2023-07-08T06:46:26;6.47;;;3.83;;
25111;SDS011;13092;51.996;4.458;2023-07-08T06:48:55;6.18;;;3.67;;
25111;SDS011;13092;51.996;4.458;2023-07-08T06:51:23;6.80;;;3.35;;
25111;SDS011;13092;51.996;4.458;2023-07-08T06:53:53;6.25;;;3.65;;
25111;SDS011;13092;51.996;4.458;2023-07-08T06:56:21;6.32;;;3.30;;
25111;SDS011;13092;51.996;4.458;2023-07-08T06:58:50;5.05;;;3.60;;
25111;SDS011;13092;51.996;4.458;2023-07-08T07:01:18;7.18;;;3.75;;
25111;SDS011;13092;51.996;4.458;2023-07-08T07:03:47;6.82;;;3.72;;
25111;SDS011;13092;51.996;4.458;2023-07-08T07:06:16;6.75;;;3.70;;
25111;SDS011;13092;51.996;4.458;2023-07-08T07:08:44;6.63;;;3.90;;
25111;SDS011;13092;51.996;4.458;2023-07-08T07:11:15;7.82;;;4.10;;
25111;SDS011;13092;51.996;4.458;2023-07-08T07:13:45;5.97;;;3.88;;
25111;SDS011;13092;51.996;4.458;2023-07-08T07:16:13;7.22;;;4.40;;
25111;SDS011;13092;51.996;4.458;2023-07-08T07:18:42;5.80;;;3.78;;
25111;SDS011;13092;51.996;4.458;2023-07-08T07:21:11;8.85;;;4.20;;
25111;SDS011;13092;51.996;4.458;2023-07-08T07:23:40;9.13;;;4.00;;
25111;SDS011;13092;51.996;4.458;2023-07-08T07:26:08;9.88;;;4.90;;
25111;SDS011;13092;51.996;4.458;2023-07-08T07:28:38;4.85;;;3.58;;
25111;SDS011;13092;51.996;4.458;2023-07-08T07:31:06;5.35;;;3.95;;
25111;SDS011;13092;51.996;4.458;2023-07-08T07:33:37;6.75;;;3.97;;
25111;SDS011;13092;51.996;4.458;2023-07-08T07:36:06;7.57;;;4.05;;
25111;SDS011;13092;51.996;4.458;2023-07-08T07:38:34;8.40;;;4.05;;
25111;SDS011;13092;51.996;4.458;2023-07-08T07:41:03;6.65;;;3.80;;
25111;SDS011;13092;51.996;4.458;2023-07-08T07:43:33;5.65;;;3.92;;
25111;SDS011;13092;51.996;4.458;2023-07-08T07:46:03;7.78;;;3.80;;
25111;SDS011;13092;51.996;4.458;2023-07-08T07:48:34;7.38;;;4.55;;
25111;SDS011;13092;51.996;4.458;2023-07-08T07:51:03;7.65;;;4.25;;
25111;SDS011;13092;51.996;4.458;2023-07-08T07:53:33;8.90;;;4.47;;
25111;SDS011;13092;51.996;4.458;2023-07-08T07:56:02;6.50;;;3.75;;
25111;SDS011;13092;51.996;4.458;2023-07-08T07:58:31;6.50;;;3.97;;
25111;SDS011;13092;51.996;4.458;2023-07-08T08:01:00;6.53;;;4.28;;
25111;SDS011;13092;51.996;4.458;2023-07-08T08:03:30;6.32;;;4.00;;
25111;SDS011;13092;51.996;4.458;2023-07-08T08:05:59;10.18;;;4.90;;
25111;SDS011;13092;51.996;4.458;2023-07-08T08:08:28;8.20;;;4.05;;
25111;SDS011;13092;51.996;4.458;2023-07-08T08:10:57;10.50;;;5.18;;
25111;SDS011;13092;51.996;4.458;2023-07-08T08:13:25;6.22;;;3.92;;
25111;SDS011;13092;51.996;4.458;2023-07-08T08:15:57;7.95;;;4.53;;
25111;SDS011;13092;51.996;4.458;2023-07-08T08:18:30;6.25;;;3.95;;
25111;SDS011;13092;51.996;4.458;2023-07-08T08:20:58;7.22;;;4.60;;
25111;SDS011;13092;51.996;4.458;2023-07-08T08:23:27;10.23;;;5.28;;
25111;SDS011;13092;51.996;4.458;2023-07-08T08:25:56;6.63;;;3.88;;
25111;SDS011;13092;51.996;4.458;2023-07-08T08:28:26;8.13;;;4.78;;
25111;SDS011;13092;51.996;4.458;2023-07-08T08:30:54;7.45;;;4.00;;
25111;SDS011;13092;51.996;4.458;2023-07-08T08:33:23;7.75;;;4.28;;
25111;SDS011;13092;51.996;4.458;2023-07-08T08:35:53;9.05;;;4.70;;
25111;SDS011;13092;51.996;4.458;2023-07-08T08:38:21;9.13;;;4.85;;
25111;SDS011;13092;51.996;4.458;2023-07-08T08:40:50;7.55;;;4.43;;
25111;SDS011;13092;51.996;4.458;2023-07-08T08:43:19;10.25;;;4.78;;
25111;SDS011;13092;51.996;4.458;2023-07-08T08:45:56;7.00;;;4.60;;
25111;SDS011;13092;51.996;4.458;2023-07-08T08:48:32;6.60;;;4.53;;
25111;SDS011;13092;51.996;4.458;2023-07-08T08:51:09;6.65;;;4.47;;
25111;SDS011;13092;51.996;4.458;2023-07-08T08:53:41;8.45;;;4.65;;
25111;SDS011;13092;51.996;4.458;2023-07-08T08:56:14;6.30;;;4.28;;
25111;SDS011;13092;51.996;4.458;2023-07-08T08:58:50;9.30;;;5.03;;
25111;SDS011;13092;51.996;4.458;2023-07-08T09:01:24;8.35;;;4.78;;
25111;SDS011;13092;51.996;4.458;2023-07-08T09:03:54;10.00;;;4.57;;
25111;SDS011;13092;51.996;4.458;2023-07-08T09:06:29;8.40;;;4.65;;
25111;SDS011;13092;51.996;4.458;2023-07-08T09:09:01;9.32;;;4.90;;
25111;SDS011;13092;51.996;4.458;2023-07-08T09:11:36;9.43;;;4.95;;
25111;SDS011;13092;51.996;4.458;2023-07-08T09:14:13;9.60;;;4.50;;
25111;SDS011;13092;51.996;4.458;2023-07-08T09:16:45;7.97;;;4.65;;
25111;SDS011;13092;51.996;4.458;2023-07-08T09:19:23;8.45;;;4.70;;
25111;SDS011;13092;51.996;4.458;2023-07-08T09:21:55;9.48;;;4.78;;
25111;SDS011;13092;51.996;4.458;2023-07-08T09:24:33;8.35;;;4.38;;
25111;SDS011;13092;51.996;4.458;2023-07-08T09:27:09;6.93;;;4.53;;
25111;SDS011;13092;51.996;4.458;2023-07-08T09:29:38;7.50;;;4.55;;
25111;SDS011;13092;51.996;4.458;2023-07-08T09:32:13;11.88;;;5.15;;
25111;SDS011;13092;51.996;4.458;2023-07-08T09:34:44;7.18;;;4.35;;
25111;SDS011;13092;51.996;4.458;2023-07-08T09:37:23;9.68;;;5.10;;
25111;SDS011;13092;51.996;4.458;2023-07-08T09:39:53;8.20;;;4.72;;
25111;SDS011;13092;51.996;4.458;2023-07-08T09:42:23;8.35;;;4.63;;
25111;SDS011;13092;51.996;4.458;2023-07-08T09:44:56;10.73;;;5.18;;
25111;SDS011;13092;51.996;4.458;2023-07-08T09:47:26;8.35;;;5.25;;
25111;SDS011;13092;51.996;4.458;2023-07-08T09:49:57;9.13;;;5.05;;
25111;SDS011;13092;51.996;4.458;2023-07-08T09:52:28;10.25;;;5.22;;
25111;SDS011;13092;51.996;4.458;2023-07-08T09:54:57;11.40;;;5.57;;
25111;SDS011;13092;51.996;4.458;2023-07-08T09:57:26;9.68;;;5.38;;
25111;SDS011;13092;51.996;4.458;2023-07-08T09:59:57;10.50;;;5.75;;
25111;SDS011;13092;51.996;4.458;2023-07-08T10:02:30;8.65;;;5.30;;
25111;SDS011;13092;51.996;4.458;2023-07-08T10:05:01;10.13;;;5.05;;
25111;SDS011;13092;51.996;4.458;2023-07-08T10:07:39;10.88;;;5.80;;
25111;SDS011;13092;51.996;4.458;2023-07-08T10:10:10;8.52;;;5.28;;
25111;SDS011;13092;51.996;4.458;2023-07-08T10:12:44;7.10;;;4.47;;
25111;SDS011;13092;51.996;4.458;2023-07-08T10:15:20;8.05;;;4.93;;
25111;SDS011;13092;51.996;4.458;2023-07-08T10:17:54;9.10;;;5.15;;
25111;SDS011;13092;51.996;4.458;2023-07-08T10:20:22;8.43;;;5.10;;
25111;SDS011;13092;51.996;4.458;2023-07-08T10:23:02;10.30;;;5.00;;
25111;SDS011;13092;51.996;4.458;2023-07-08T10:25:38;10.05;;;5.78;;
25111;SDS011;13092;51.996;4.458;2023-07-08T10:28:21;11.10;;;5.97;;
25111;SDS011;13092;51.996;4.458;2023-07-08T10:31:00;9.32;;;5.68;;
25111;SDS011;13092;51.996;4.458;2023-07-08T10:33:39;11.27;;;6.15;;
25111;SDS011;13092;51.996;4.458;2023-07-08T10:36:22;10.88;;;5.55;;
25111;SDS011;13092;51.996;4.458;2023-07-08T10:39:03;10.48;;;6.28;;
25111;SDS011;13092;51.996;4.458;2023-07-08T10:41:47;10.82;;;5.72;;
25111;SDS011;13092;51.996;4.458;2023-07-08T10:44:21;11.68;;;5.80;;
25111;SDS011;13092;51.996;4.458;2023-07-08T10:46:57;12.25;;;6.13;;
25111;SDS011;13092;51.996;4.458;2023-07-08T10:49:42;10.77;;;5.53;;
25111;SDS011;13092;51.996;4.458;2023-07-08T10:52:40;10.65;;;5.72;;
25111;SDS011;13092;51.996;4.458;2023-07-08T10:55:25;8.77;;;5.25;;
25111;SDS011;13092;51.996;4.458;2023-07-08T10:58:11;9.98;;;5.68;;
25111;SDS011;13092;51.996;4.458;2023-07-08T11:01:00;10.68;;;5.80;;
25111;SDS011;13092;51.996;4.458;2023-07-08T11:03:44;10.23;;;5.32;;
25111;SDS011;13092;51.996;4.458;2023-07-08T11:06:45;8.00;;;5.32;;
25111;SDS011;13092;51.996;4.458;2023-07-08T11:09:18;10.77;;;5.57;;
25111;SDS011;13092;51.996;4.458;2023-07-08T11:11:56;9.52;;;5.40;;
25111;SDS011;13092;51.996;4.458;2023-07-08T11:14:28;8.98;;;5.05;;
25111;SDS011;13092;51.996;4.458;2023-07-08T11:17:06;8.27;;;5.15;;
25111;SDS011;13092;51.996;4.458;2023-07-08T11:19:47;9.63;;;5.35;;
25111;SDS011;13092;51.996;4.458;2023-07-08T11:22:20;12.70;;;5.72;;
25111;SDS011;13092;51.996;4.458;2023-07-08T11:24:49;10.23;;;6.30;;
25111;SDS011;13092;51.996;4.458;2023-07-08T11:27:40;10.52;;;5.90;;
25111;SDS011;13092;51.996;4.458;2023-07-08T11:30:12;9.30;;;5.72;;
25111;SDS011;13092;51.996;4.458;2023-07-08T11:32:45;8.45;;;5.82;;
25111;SDS011;13092;51.996;4.458;2023-07-08T11:35:50;11.13;;;6.57;;
25111;SDS011;13092;51.996;4.458;2023-07-08T11:39:26;14.07;;;6.60;;
25111;SDS011;13092;51.996;4.458;2023-07-08T12:41:27;9.18;;;5.70;;
25111;SDS011;13092;51.996;4.458;2023-07-08T12:43:56;10.32;;;6.00;;
25111;SDS011;13092;51.996;4.458;2023-07-08T12:46:25;8.55;;;5.45;;
25111;SDS011;13092;51.996;4.458;2023-07-08T12:48:54;10.27;;;5.70;;
25111;SDS011;13092;51.996;4.458;2023-07-08T12:51:24;9.82;;;5.38;;
25111;SDS011;13092;51.996;4.458;2023-07-08T14:50:58;12.80;;;5.53;;
25111;SDS011;13092;51.996;4.458;2023-07-08T14:54:17;8.05;;;5.60;;
25111;SDS011;13092;51.996;4.458;2023-07-08T15:01:12;12.25;;;6.00;;
25111;SDS011;13092;51.996;4.458;2023-07-08T15:11:42;12.02;;;5.65;;
25111;SDS011;13092;51.996;4.458;2023-07-08T15:14:48;12.10;;;6.13;;
25111;SDS011;13092;51.996;4.458;2023-07-08T15:17:45;10.55;;;5.00;;
25111;SDS011;13092;51.996;4.458;2023-07-08T15:21:06;11.45;;;6.15;;
25111;SDS011;13092;51.996;4.458;2023-07-08T15:43:01;12.52;;;6.18;;
25111;SDS011;13092;51.996;4.458;2023-07-08T15:49:33;12.30;;;6.50;;
25111;SDS011;13092;51.996;4.458;2023-07-08T15:57:04;9.13;;;5.80;;
25111;SDS011;13092;51.996;4.458;2023-07-08T16:00:18;12.50;;;6.30;;
25111;SDS011;13092;51.996;4.458;2023-07-08T16:02:51;9.85;;;6.32;;
25111;SDS011;13092;51.996;4.458;2023-07-08T16:05:23;12.23;;;6.30;;
25111;SDS011;13092;51.996;4.458;2023-07-08T16:07:55;9.73;;;6.50;;
25111;SDS011;13092;51.996;4.458;2023-07-08T16:10:23;14.52;;;6.25;;
25111;SDS011;13092;51.996;4.458;2023-07-08T16:12:57;12.73;;;7.45;;
25111;SDS011;13092;51.996;4.458;2023-07-08T16:15:26;12.30;;;7.28;;
25111;SDS011;13092;51.996;4.458;2023-07-08T16:18:02;12.55;;;7.55;;
25111;SDS011;13092;51.996;4.458;2023-07-08T16:20:34;14.00;;;7.13;;
25111;SDS011;13092;51.996;4.458;2023-07-08T16:23:03;12.88;;;7.82;;
25111;SDS011;13092;51.996;4.458;2023-07-08T16:25:36;12.40;;;8.30;;
25111;SDS011;13092;51.996;4.458;2023-07-08T16:28:16;15.70;;;9.98;;
25111;SDS011;13092;51.996;4.458;2023-07-08T16:30:51;12.77;;;8.15;;
25111;SDS011;13092;51.996;4.458;2023-07-08T16:33:20;13.65;;;9.00;;
25111;SDS011;13092;51.996;4.458;2023-07-08T16:35:48;11.65;;;7.38;;
25111;SDS011;13092;51.996;4.458;2023-07-08T16:38:19;12.80;;;7.93;;
25111;SDS011;13092;51.996;4.458;2023-07-08T16:40:49;13.35;;;7.22;;
25111;SDS011;13092;51.996;4.458;2023-07-08T16:43:30;15.35;;;8.98;;
25111;SDS011;13092;51.996;4.458;2023-07-08T16:46:11;11.82;;;7.10;;
25111;SDS011;13092;51.996;4.458;2023-07-08T16:48:41;11.60;;;6.68;;
25111;SDS011;13092;51.996;4.458;2023-07-08T16:51:11;12.85;;;7.25;;
25111;SDS011;13092;51.996;4.458;2023-07-08T16:53:41;8.95;;;6.07;;
25111;SDS011;13092;51.996;4.458;2023-07-08T16:56:10;13.85;;;7.18;;
25111;SDS011;13092;51.996;4.458;2023-07-08T16:58:40;12.30;;;7.55;;
25111;SDS011;13092;51.996;4.458;2023-07-08T17:01:10;11.70;;;7.97;;
25111;SDS011;13092;51.996;4.458;2023-07-08T17:03:54;9.32;;;6.38;;
25111;SDS011;13092;51.996;4.458;2023-07-08T17:06:24;11.07;;;6.95;;
25111;SDS011;13092;51.996;4.458;2023-07-08T17:08:53;12.80;;;8.10;;
25111;SDS011;13092;51.996;4.458;2023-07-08T17:11:23;12.32;;;7.38;;
25111;SDS011;13092;51.996;4.458;2023-07-08T17:13:59;13.85;;;7.30;;
25111;SDS011;13092;51.996;4.458;2023-07-08T17:16:29;12.20;;;7.18;;
25111;SDS011;13092;51.996;4.458;2023-07-08T17:19:14;11.23;;;6.65;;
25111;SDS011;13092;51.996;4.458;2023-07-08T17:24:27;9.77;;;6.55;;
25111;SDS011;13092;51.996;4.458;2023-07-08T17:27:00;11.45;;;6.60;;
25111;SDS011;13092;51.996;4.458;2023-07-08T17:29:31;11.15;;;6.38;;
25111;SDS011;13092;51.996;4.458;2023-07-08T17:32:02;12.85;;;6.80;;
25111;SDS011;13092;51.996;4.458;2023-07-08T17:38:19;12.52;;;6.93;;
25111;SDS011;13092;51.996;4.458;2023-07-08T17:40:54;11.52;;;7.88;;
25111;SDS011;13092;51.996;4.458;2023-07-08T17:43:30;12.23;;;7.53;;
25111;SDS011;13092;51.996;4.458;2023-07-08T17:49:11;16.13;;;11.73;;
25111;SDS011;13092;51.996;4.458;2023-07-08T17:52:20;19.80;;;17.60;;
25111;SDS011;13092;51.996;4.458;2023-07-08T17:57:53;15.02;;;9.15;;
25111;SDS011;13092;51.996;4.458;2023-07-08T18:00:26;9.52;;;6.90;;
25111;SDS011;13092;51.996;4.458;2023-07-08T18:03:09;11.38;;;6.47;;
25111;SDS011;13092;51.996;4.458;2023-07-08T18:05:38;12.05;;;6.45;;
25111;SDS011;13092;51.996;4.458;2023-07-08T18:08:06;11.63;;;6.68;;
25111;SDS011;13092;51.996;4.458;2023-07-08T18:10:35;10.75;;;6.75;;
25111;SDS011;13092;51.996;4.458;2023-07-08T18:13:04;11.45;;;6.72;;
25111;SDS011;13092;51.996;4.458;2023-07-08T18:15:41;10.82;;;7.07;;
25111;SDS011;13092;51.996;4.458;2023-07-08T18:18:17;11.85;;;6.90;;
25111;SDS011;13092;51.996;4.458;2023-07-08T18:20:50;11.48;;;6.38;;
25111;SDS011;13092;51.996;4.458;2023-07-08T18:23:24;9.65;;;6.45;;
25111;SDS011;13092;51.996;4.458;2023-07-08T18:26:02;11.43;;;7.03;;
25111;SDS011;13092;51.996;4.458;2023-07-08T18:28:33;12.52;;;6.50;;
25111;SDS011;13092;51.996;4.458;2023-07-08T18:31:04;11.23;;;6.63;;
25111;SDS011;13092;51.996;4.458;2023-07-08T18:33:41;10.90;;;6.85;;
25111;SDS011;13092;51.996;4.458;2023-07-08T18:36:10;11.45;;;6.70;;
25111;SDS011;13092;51.996;4.458;2023-07-08T18:38:41;9.57;;;6.47;;
25111;SDS011;13092;51.996;4.458;2023-07-08T18:41:15;11.65;;;6.72;;
25111;SDS011;13092;51.996;4.458;2023-07-08T18:44:10;11.65;;;7.13;;
25111;SDS011;13092;51.996;4.458;2023-07-08T18:46:47;11.00;;;6.95;;
25111;SDS011;13092;51.996;4.458;2023-07-08T18:49:17;13.48;;;7.05;;
25111;SDS011;13092;51.996;4.458;2023-07-08T18:51:46;17.92;;;6.90;;
25111;SDS011;13092;51.996;4.458;2023-07-08T18:57:01;11.85;;;7.00;;
25111;SDS011;13092;51.996;4.458;2023-07-08T18:59:32;11.05;;;6.35;;
25111;SDS011;13092;51.996;4.458;2023-07-08T19:02:06;14.40;;;7.45;;
25111;SDS011;13092;51.996;4.458;2023-07-08T19:04:59;9.88;;;6.63;;
25111;SDS011;13092;51.996;4.458;2023-07-08T19:07:30;10.50;;;6.38;;